Time;durP1;ratioP1;P1;durP2;ratioP2;P2;SDS_P1;SDS_P2;PMS_P1;PMS_P2;Temp;Humidity;BMP_temperature;BMP_pressure;BME280_temperature;BME280_humidity;BME280_pressure;Samples;Min_cycle;Max_cycle;Signal;HPM_P1;HPM_P2
2023/05/16 00:01:43;;;;;;;5.32;2.03;;;18.30;67.20;;;;;;10277242;28;20476;-56
2023/05/16 00:06:44;;;;;;;3.42;1.80;;;18.30;67.00;;;;;;10304876;28;20094;-56
2023/05/16 00:11:47;;;;;;;3.58;1.60;;;18.30;67.10;;;;;;10304355;28;20047;-56
2023/05/16 00:16:47;;;;;;;4.90;1.90;;;18.20;66.90;;;;;;10289320;28;20050;-56
2023/05/16 00:21:48;;;;;;;4.05;1.95;;;18.20;67.10;;;;;;10288898;28;20484;-55
2023/05/16 00:26:49;;;;;;;3.72;1.90;;;18.20;66.80;;;;;;10303674;28;20113;-58
2023/05/16 00:31:49;;;;;;;3.67;1.73;;;18.20;67.00;;;;;;10303709;28;20102;-55
2023/05/16 00:36:50;;;;;;;3.17;1.48;;;18.20;66.80;;;;;;10266467;28;20110;-56
2023/05/16 00:41:51;;;;;;;3.20;1.58;;;18.20;66.90;;;;;;10248576;29;20058;-56
2023/05/16 00:46:53;;;;;;;5.78;2.38;;;18.20;66.80;;;;;;10248295;29;20035;-55
2023/05/16 00:51:54;;;;;;;3.63;1.73;;;18.20;66.80;;;;;;10247592;28;20027;-56
2023/05/16 00:56:55;;;;;;;4.78;1.92;;;18.20;66.80;;;;;;10230703;29;20024;-58
2023/05/16 01:01:56;;;;;;;4.15;1.80;;;18.20;66.90;;;;;;10247289;28;20383;-55
2023/05/16 01:06:57;;;;;;;5.82;2.63;;;18.20;66.70;;;;;;10230244;28;20032;-57
2023/05/16 01:12:37;;;;;;;3.13;1.92;;;18.10;66.50;;;;;;10230082;28;20455;-55
2023/05/16 01:18:01;;;;;;;5.20;1.58;;;18.10;66.40;;;;;;10268514;28;20061;-54
2023/05/16 01:23:48;;;;;;;4.05;1.65;;;18.10;66.70;;;;;;10269342;28;20122;-56
2023/05/16 01:28:51;;;;;;;3.33;1.73;;;18.10;66.60;;;;;;10283814;28;20027;-56
2023/05/16 01:33:52;;;;;;;4.25;1.63;;;18.10;66.40;;;;;;10247308;28;20021;-56
2023/05/16 01:39:32;;;;;;;3.75;1.42;;;18.10;66.40;;;;;;10284933;28;20058;-56
2023/05/16 01:44:37;;;;;;;3.63;1.60;;;18.10;66.30;;;;;;10255413;28;20038;-56
2023/05/16 01:49:53;;;;;;;3.58;1.70;;;18.10;66.50;;;;;;10265100;28;20118;-57
2023/05/16 01:54:58;;;;;;;3.38;1.63;;;18.00;66.20;;;;;;10240959;28;20027;-56
2023/05/16 01:59:59;;;;;;;3.90;1.67;;;18.00;66.20;;;;;;10300452;28;20023;-55
2023/05/16 02:04:59;;;;;;;5.40;1.70;;;18.00;66.30;;;;;;10299543;28;20055;-56
2023/05/16 02:10:00;;;;;;;5.72;2.10;;;18.00;66.10;;;;;;10284907;28;20165;-55
2023/05/16 02:15:01;;;;;;;4.82;1.95;;;18.00;66.30;;;;;;10284629;28;20130;-55
2023/05/16 02:20:05;;;;;;;3.65;1.58;;;18.00;66.00;;;;;;10284675;28;20106;-56
2023/05/16 02:25:07;;;;;;;5.38;1.73;;;18.00;66.10;;;;;;10265112;28;20092;-55
2023/05/16 02:30:12;;;;;;;5.00;1.83;;;18.00;66.00;;;;;;10227769;29;20114;-55
2023/05/16 02:35:12;;;;;;;4.25;1.85;;;18.00;66.00;;;;;;10227022;28;20012;-54
2023/05/16 02:40:14;;;;;;;3.15;1.48;;;18.00;66.00;;;;;;10227003;29;20027;-55
2023/05/16 02:45:15;;;;;;;3.05;1.65;;;18.00;65.90;;;;;;10226741;29;20086;-55
2023/05/16 02:50:15;;;;;;;6.13;2.10;;;18.00;66.10;;;;;;10243756;28;20101;-55
2023/05/16 02:55:16;;;;;;;6.10;1.83;;;17.90;65.80;;;;;;10243746;29;20059;-56
2023/05/16 03:00:17;;;;;;;4.32;1.58;;;17.90;65.70;;;;;;10243793;28;20049;-57
2023/05/16 03:05:18;;;;;;;2.75;1.35;;;17.90;65.90;;;;;;10226266;29;20031;-56
2023/05/16 03:10:19;;;;;;;4.00;1.42;;;17.90;65.80;;;;;;10243421;28;20034;-56
2023/05/16 03:15:20;;;;;;;4.57;1.50;;;17.90;65.90;;;;;;10213895;29;20066;-55
2023/05/16 03:20:21;;;;;;;3.95;1.40;;;17.90;65.80;;;;;;10234058;28;20162;-55
2023/05/16 03:25:22;;;;;;;2.65;1.50;;;17.90;66.10;;;;;;10251354;29;20167;-55
2023/05/16 03:30:23;;;;;;;3.83;1.42;;;17.90;65.70;;;;;;10286295;28;20026;-55
2023/05/16 03:35:24;;;;;;;4.63;1.40;;;17.90;65.90;;;;;;10302444;28;20073;-56
2023/05/16 03:40:24;;;;;;;3.97;2.25;;;17.90;65.90;;;;;;10237287;28;20544;-55
2023/05/16 03:45:25;;;;;;;5.20;1.40;;;17.90;65.70;;;;;;10258224;28;20037;-56
2023/05/16 03:50:26;;;;;;;3.72;1.55;;;17.80;65.80;;;;;;10233327;28;20039;-54
2023/05/16 03:55:27;;;;;;;4.85;1.55;;;17.90;67.40;;;;;;10221509;28;20035;-55
2023/05/16 04:00:27;;;;;;;2.88;1.20;;;18.00;67.00;;;;;;10255706;28;20078;-55
2023/05/16 04:05:28;;;;;;;5.28;1.42;;;18.00;67.40;;;;;;10248685;28;20126;-55
2023/05/16 04:10:29;;;;;;;5.70;1.33;;;18.00;67.10;;;;;;10249769;28;20481;-57
2023/05/16 04:15:30;;;;;;;3.13;1.15;;;18.00;67.20;;;;;;10246577;28;20066;-56
2023/05/16 04:20:30;;;;;;;6.00;1.45;;;17.90;66.70;;;;;;10231312;28;20112;-56
2023/05/16 04:25:31;;;;;;;3.95;1.30;;;17.90;66.30;;;;;;10247179;28;20047;-57
2023/05/16 04:30:32;;;;;;;2.15;0.90;;;17.90;66.40;;;;;;10246085;28;20070;-57
2023/05/16 04:35:33;;;;;;;3.20;1.60;;;17.80;66.20;;;;;;10262796;28;20091;-56
2023/05/16 04:40:34;;;;;;;4.13;1.50;;;17.80;65.90;;;;;;10231340;28;20102;-56
2023/05/16 04:45:34;;;;;;;3.53;1.30;;;17.80;65.80;;;;;;10248201;29;20047;-55
2023/05/16 04:50:35;;;;;;;5.50;1.48;;;17.80;65.90;;;;;;10260592;28;20015;-55
2023/05/16 04:55:36;;;;;;;10.57;2.08;;;17.80;67.20;;;;;;10248014;28;20054;-55
2023/05/16 05:00:38;;;;;;;5.45;1.52;;;17.90;67.00;;;;;;10247997;28;20119;-55
2023/05/16 05:05:38;;;;;;;6.43;2.10;;;18.00;67.00;;;;;;10237893;29;20060;-53
2023/05/16 05:10:39;;;;;;;9.93;1.90;;;18.00;67.10;;;;;;10260694;28;20102;-56
2023/05/16 05:15:40;;;;;;;6.63;2.42;;;18.00;66.90;;;;;;10297553;28;20042;-57
2023/05/16 05:20:41;;;;;;;9.13;1.70;;;18.00;66.50;;;;;;10245623;29;20028;-57
2023/05/16 05:25:41;;;;;;;6.60;1.23;;;18.00;66.20;;;;;;10229475;29;20021;-57
2023/05/16 05:30:42;;;;;;;10.40;2.13;;;17.90;67.20;;;;;;10246323;28;20022;-56
2023/05/16 05:35:43;;;;;;;6.90;2.22;;;17.90;67.30;;;;;;10271918;28;20023;-56
2023/05/16 05:40:43;;;;;;;11.25;1.70;;;17.90;67.00;;;;;;10247776;28;20503;-56
2023/05/16 05:45:44;;;;;;;8.52;2.25;;;18.00;67.40;;;;;;10268532;28;20051;-56
2023/05/16 05:50:45;;;;;;;9.95;1.95;;;17.90;66.90;;;;;;10228000;29;20023;-56
2023/05/16 05:55:46;;;;;;;8.50;1.52;;;17.90;67.20;;;;;;10235688;28;20407;-56
2023/05/16 06:00:46;;;;;;;5.68;1.60;;;17.90;67.10;;;;;;10227907;29;20619;-55
2023/05/16 06:05:47;;;;;;;13.15;2.88;;;17.90;67.00;;;;;;10245180;28;20023;-55
2023/05/16 06:10:48;;;;;;;14.98;2.95;;;18.00;66.50;;;;;;10227957;29;20023;-55
2023/05/16 06:15:52;;;;;;;6.03;1.67;;;18.00;66.80;;;;;;10281282;28;20872;-55
2023/05/16 06:20:53;;;;;;;5.82;2.08;;;17.90;66.90;;;;;;10284486;28;20094;-55
2023/05/16 06:25:54;;;;;;;9.10;3.70;;;17.90;66.80;;;;;;10299425;28;20053;-55
2023/05/16 06:30:54;;;;;;;6.30;3.20;;;17.80;66.70;;;;;;10299484;28;20097;-56
2023/05/16 06:35:55;;;;;;;14.05;3.13;;;17.80;67.10;;;;;;10281911;28;20018;-55
2023/05/16 06:40:56;;;;;;;6.13;1.38;;;17.80;66.50;;;;;;10244395;29;20094;-55
2023/05/16 06:45:56;;;;;;;3.63;1.30;;;17.80;67.20;;;;;;10226639;28;20032;-55
2023/05/16 06:50:57;;;;;;;3.42;1.50;;;17.80;66.60;;;;;;10256440;28;20062;-55
2023/05/16 06:55:58;;;;;;;8.82;1.95;;;17.80;66.50;;;;;;10226298;29;20442;-55
2023/05/16 07:00:59;;;;;;;3.35;1.30;;;17.80;66.80;;;;;;10240711;28;20534;-52
2023/05/16 07:06:00;;;;;;;4.70;1.90;;;17.80;66.90;;;;;;10209735;29;20444;-55
2023/05/16 07:11:00;;;;;;;6.07;1.75;;;17.80;66.90;;;;;;10238487;29;20015;-53
2023/05/16 07:16:01;;;;;;;6.95;1.67;;;17.80;66.60;;;;;;10220990;28;20142;-54
2023/05/16 07:21:02;;;;;;;5.63;2.15;;;17.80;66.20;;;;;;10238656;29;20049;-54
2023/05/16 07:26:02;;;;;;;5.57;2.13;;;17.90;66.00;;;;;;10240912;29;20027;-55
2023/05/16 07:31:03;;;;;;;5.65;1.80;;;17.90;65.90;;;;;;10241238;29;20027;-56
2023/05/16 07:36:05;;;;;;;5.25;2.13;;;17.90;65.90;;;;;;10223722;28;20051;-55
2023/05/16 07:41:05;;;;;;;4.45;1.75;;;17.90;65.70;;;;;;10223932;29;20027;-55
2023/05/16 07:46:06;;;;;;;4.18;1.60;;;17.90;65.70;;;;;;10223561;29;20063;-53
2023/05/16 07:51:07;;;;;;;5.22;1.85;;;17.90;66.10;;;;;;10248028;28;20067;-54
2023/05/16 07:56:08;;;;;;;5.35;1.98;;;17.90;66.10;;;;;;10280092;28;20112;-54
2023/05/16 08:01:08;;;;;;;6.50;2.00;;;17.90;65.70;;;;;;10283487;28;20370;-55
2023/05/16 08:06:09;;;;;;;4.60;1.50;;;17.90;65.60;;;;;;10275520;28;20046;-54
2023/05/16 08:11:10;;;;;;;5.07;1.48;;;18.00;65.50;;;;;;10246575;29;20034;-55
2023/05/16 08:16:11;;;;;;;4.75;1.40;;;17.90;65.40;;;;;;10261796;28;20132;-54
2023/05/16 08:21:13;;;;;;;5.05;1.67;;;18.00;65.70;;;;;;10248081;28;20438;-55
2023/05/16 08:26:13;;;;;;;5.43;1.23;;;18.00;65.80;;;;;;10278592;28;20390;-54
2023/05/16 08:31:14;;;;;;;5.68;1.60;;;17.90;65.40;;;;;;10212277;29;20059;-54
2023/05/16 08:36:17;;;;;;;5.78;1.95;;;17.90;65.90;;;;;;10257412;28;20027;-55
2023/05/16 08:41:18;;;;;;;6.10;1.92;;;17.90;65.90;;;;;;10243490;29;20027;-55
2023/05/16 08:46:22;;;;;;;3.40;0.98;;;17.90;65.80;;;;;;10225721;29;20035;-55
2023/05/16 08:51:25;;;;;;;3.03;0.93;;;17.90;65.90;;;;;;10226137;28;20096;-55
2023/05/16 08:56:27;;;;;;;3.22;1.25;;;17.90;65.60;;;;;;10229407;28;20031;-54
2023/05/16 09:01:29;;;;;;;3.78;0.93;;;17.90;65.50;;;;;;10245112;29;20096;-55
2023/05/16 09:06:29;;;;;;;6.90;1.67;;;17.90;65.40;;;;;;10228101;28;20164;-55
2023/05/16 09:11:30;;;;;;;4.80;1.40;;;18.00;65.40;;;;;;10226327;28;20031;-55
2023/05/16 09:16:31;;;;;;;2.40;1.05;;;18.00;65.40;;;;;;10227304;29;20063;-54
2023/05/16 09:21:33;;;;;;;5.72;1.30;;;18.00;65.40;;;;;;10212016;28;20027;-55
2023/05/16 09:26:37;;;;;;;2.15;0.93;;;18.00;65.20;;;;;;10244497;29;20537;-54
2023/05/16 09:31:38;;;;;;;3.85;0.90;;;18.00;65.20;;;;;;10244249;28;20478;-54
2023/05/16 09:36:38;;;;;;;2.47;0.98;;;18.00;65.40;;;;;;10226963;28;20118;-54
2023/05/16 09:41:39;;;;;;;2.85;0.90;;;18.10;65.30;;;;;;10244010;28;20129;-54
2023/05/16 09:46:40;;;;;;;2.03;0.70;;;18.10;65.30;;;;;;10266970;28;20023;-55
2023/05/16 09:51:41;;;;;;;1.42;0.60;;;18.10;65.10;;;;;;10259217;28;20297;-55
2023/05/16 09:56:50;;;;;;;2.80;0.82;;;18.10;65.20;;;;;;10225946;28;20165;-55
2023/05/16 10:01:52;;;;;;;4.90;1.02;;;18.10;64.90;;;;;;10226770;28;20540;-54
2023/05/16 10:06:56;;;;;;;1.92;1.05;;;18.10;64.90;;;;;;10225629;28;20062;-56
2023/05/16 10:12:01;;;;;;;2.63;0.88;;;18.10;65.10;;;;;;10225953;28;20360;-54
2023/05/16 10:17:13;;;;;;;3.42;0.70;;;18.10;65.00;;;;;;10242597;28;20487;-54
2023/05/16 10:22:14;;;;;;;3.50;0.80;;;18.10;65.00;;;;;;10225049;28;20069;-55
2023/05/16 10:27:16;;;;;;;2.67;1.02;;;18.10;64.90;;;;;;10225519;28;20063;-54
2023/05/16 10:32:18;;;;;;;2.08;1.02;;;18.10;64.90;;;;;;10225542;29;20470;-55
2023/05/16 10:37:18;;;;;;;4.65;0.95;;;18.10;64.90;;;;;;10242597;28;20122;-55
2023/05/16 10:42:20;;;;;;;2.70;0.98;;;18.20;64.90;;;;;;10242775;29;20038;-54
2023/05/16 10:47:21;;;;;;;1.10;0.70;;;18.10;64.80;;;;;;10242788;29;20415;-56
2023/05/16 10:52:33;;;;;;;1.67;0.70;;;18.20;64.70;;;;;;10268489;28;20034;-55
2023/05/16 10:57:35;;;;;;;6.38;2.70;;;18.20;66.70;;;;;;10245748;28;20043;-55
2023/05/16 11:02:40;;;;;;;3.40;1.33;;;18.20;64.30;;;;;;10226634;29;20023;-54
2023/05/16 11:07:41;;;;;;;3.60;0.90;;;18.30;64.70;;;;;;10243420;28;20031;-56
2023/05/16 11:12:51;;;;;;;4.43;1.30;;;18.30;64.80;;;;;;10225873;29;20525;-55
2023/05/16 11:18:15;;;;;;;3.75;1.02;;;18.30;65.30;;;;;;10242713;28;20788;-55
2023/05/16 11:23:20;;;;;;;3.78;1.23;;;18.30;65.30;;;;;;10234176;28;20056;-56
2023/05/16 11:28:23;;;;;;;2.65;0.90;;;18.30;65.40;;;;;;10229678;28;20062;-55
2023/05/16 11:33:24;;;;;;;3.55;1.13;;;18.30;65.20;;;;;;10297079;28;20030;-54
2023/05/16 11:38:25;;;;;;;7.78;1.35;;;18.30;65.30;;;;;;10255968;28;20023;-54
2023/05/16 11:43:27;;;;;;;6.68;1.05;;;18.20;65.20;;;;;;10232038;29;20038;-55
2023/05/16 11:48:28;;;;;;;5.45;1.00;;;18.20;65.30;;;;;;10250481;28;20062;-53
2023/05/16 11:53:29;;;;;;;4.20;0.70;;;18.20;65.30;;;;;;10265056;28;20029;-56
2023/05/16 11:58:30;;;;;;;2.95;1.42;;;18.20;65.10;;;;;;10304889;28;20019;-55
2023/05/16 12:03:33;;;;;;;4.18;1.23;;;18.20;65.10;;;;;;10304998;28;20054;-53
2023/05/16 12:08:34;;;;;;;3.70;1.00;;;18.20;65.00;;;;;;10289558;28;20030;-53
2023/05/16 12:13:35;;;;;;;3.85;1.20;;;18.20;65.00;;;;;;10289683;28;20129;-54
2023/05/16 12:18:39;;;;;;;4.05;1.10;;;18.20;65.00;;;;;;10263035;28;20051;-54
2023/05/16 12:23:42;;;;;;;3.13;0.90;;;18.20;64.90;;;;;;10232167;29;20423;-54
2023/05/16 12:28:43;;;;;;;8.93;1.55;;;18.10;64.50;;;;;;10231777;28;20042;-54
2023/05/16 12:33:44;;;;;;;17.48;2.97;;;18.30;65.60;;;;;;10248691;28;20011;-55
2023/05/16 12:38:47;;;;;;;5.63;1.35;;;18.40;65.30;;;;;;10255510;28;20080;-54
2023/05/16 12:43:50;;;;;;;11.98;1.65;;;18.40;65.00;;;;;;10231150;28;20035;-53
2023/05/16 12:49:03;;;;;;;17.95;4.18;;;18.40;65.50;;;;;;10230598;28;20059;-55
2023/05/16 12:54:10;;;;;;;16.10;2.78;;;18.20;65.30;;;;;;10261327;28;20450;-55
2023/05/16 12:59:11;;;;;;;15.00;2.30;;;18.20;65.60;;;;;;10269576;28;20079;-56
2023/05/16 13:04:16;;;;;;;23.27;3.88;;;18.30;66.50;;;;;;10302276;28;20170;-55
2023/05/16 13:09:18;;;;;;;22.00;2.33;;;18.20;66.90;;;;;;10287495;28;20393;-54
2023/05/16 13:14:18;;;;;;;11.32;2.55;;;18.30;66.50;;;;;;10285790;28;20100;-54
2023/05/16 13:19:21;;;;;;;16.00;3.15;;;18.50;66.20;;;;;;10287224;28;20097;-57
2023/05/16 13:24:22;;;;;;;15.35;2.80;;;18.50;66.40;;;;;;10294097;28;20366;-55
2023/05/16 13:29:23;;;;;;;16.10;2.65;;;18.60;65.90;;;;;;10229194;28;20042;-56
2023/05/16 13:34:24;;;;;;;9.38;2.17;;;18.70;66.30;;;;;;10264111;28;20048;-56
2023/05/16 13:39:24;;;;;;;11.85;2.95;;;18.80;66.80;;;;;;10250946;28;20023;-56
2023/05/16 13:44:25;;;;;;;16.15;2.58;;;18.90;67.10;;;;;;10245825;28;20073;-55
2023/05/16 13:49:26;;;;;;;10.23;2.90;;;18.80;68.00;;;;;;10245955;29;20039;-55
2023/05/16 13:54:27;;;;;;;11.88;2.60;;;18.90;65.70;;;;;;10285506;28;20093;-56
2023/05/16 13:59:28;;;;;;;10.38;2.63;;;18.70;66.30;;;;;;10285152;28;20425;-55
2023/05/16 14:04:28;;;;;;;8.90;2.30;;;18.70;67.00;;;;;;10267876;28;20078;-56
2023/05/16 14:09:29;;;;;;;13.73;2.38;;;18.70;66.70;;;;;;10267529;28;20122;-56
2023/05/16 14:14:30;;;;;;;8.98;1.70;;;18.60;66.10;;;;;;10284959;28;20066;-55
2023/05/16 14:19:31;;;;;;;9.55;2.38;;;18.50;65.80;;;;;;10284973;28;20027;-55
2023/05/16 14:24:32;;;;;;;12.63;2.90;;;18.50;66.30;;;;;;10284710;28;20783;-57
2023/05/16 14:29:33;;;;;;;9.00;1.98;;;18.50;65.70;;;;;;10299345;28;20022;-57
2023/05/16 14:34:33;;;;;;;8.40;2.15;;;18.40;65.90;;;;;;10284420;28;20057;-56
2023/05/16 14:39:34;;;;;;;6.47;1.77;;;18.40;66.00;;;;;;10229604;29;20023;-54
2023/05/16 14:44:35;;;;;;;6.88;1.50;;;18.30;65.80;;;;;;10228318;28;20034;-56
2023/05/16 14:49:36;;;;;;;11.18;3.03;;;18.20;65.80;;;;;;10240049;28;20106;-56
2023/05/16 14:54:36;;;;;;;8.73;2.60;;;18.20;65.70;;;;;;10255955;28;20007;-55
2023/05/16 14:59:37;;;;;;;8.65;2.22;;;18.10;64.70;;;;;;10243440;29;20585;-56
2023/05/16 15:04:38;;;;;;;17.55;3.83;;;18.10;64.20;;;;;;10226609;28;20094;-56
2023/05/16 15:09:38;;;;;;;18.30;4.32;;;18.10;63.70;;;;;;10229141;28;20122;-51
2023/05/16 15:14:39;;;;;;;19.23;4.00;;;18.40;62.40;;;;;;10251608;28;20608;-55
2023/05/16 15:19:40;;;;;;;24.70;4.05;;;18.50;61.90;;;;;;10234399;28;20098;-55
2023/05/16 15:24:40;;;;;;;30.50;6.05;;;18.50;63.00;;;;;;10232143;29;20444;-55
2023/05/16 15:29:41;;;;;;;21.80;5.63;;;18.50;63.40;;;;;;10258657;28;20074;-53
2023/05/16 15:34:42;;;;;;;14.73;4.25;;;18.50;64.20;;;;;;10238787;28;20035;-56
2023/05/16 15:39:42;;;;;;;18.92;3.50;;;18.60;65.30;;;;;;10235305;28;20039;-55
2023/05/16 15:44:43;;;;;;;17.35;3.60;;;18.60;66.00;;;;;;10250139;28;20024;-56
2023/05/16 15:49:44;;;;;;;19.55;3.42;;;18.70;66.70;;;;;;10217057;29;20478;-53
2023/05/16 15:54:45;;;;;;;15.57;4.20;;;18.90;65.90;;;;;;10232525;29;20022;-54
2023/05/16 15:59:45;;;;;;;12.23;2.80;;;19.20;64.40;;;;;;10249967;28;20505;-55
2023/05/16 16:04:48;;;;;;;17.20;3.05;;;19.10;66.90;;;;;;10245359;28;20026;-53
2023/05/16 16:09:48;;;;;;;10.73;2.38;;;18.90;67.80;;;;;;10289842;28;20118;-56
2023/05/16 16:14:49;;;;;;;16.23;3.03;;;18.90;67.00;;;;;;10295993;28;20138;-54
2023/05/16 16:19:50;;;;;;;17.15;3.92;;;18.90;66.90;;;;;;10249175;28;20596;-54
2023/05/16 16:24:50;;;;;;;16.42;2.92;;;18.80;67.20;;;;;;10247055;28;20042;-54
2023/05/16 16:29:51;;;;;;;22.00;4.10;;;18.80;67.30;;;;;;10231736;28;20361;-56
2023/05/16 16:34:52;;;;;;;26.98;4.53;;;18.80;66.80;;;;;;10270347;28;20469;-56
2023/05/16 16:39:52;;;;;;;19.38;3.88;;;18.70;66.70;;;;;;10262942;28;20061;-56
2023/05/16 16:44:53;;;;;;;22.88;3.38;;;18.60;66.60;;;;;;10285937;28;20033;-54
2023/05/16 16:49:54;;;;;;;23.35;4.75;;;18.60;66.30;;;;;;10247666;29;20126;-56
2023/05/16 16:54:54;;;;;;;22.35;5.15;;;18.50;65.60;;;;;;10248137;29;20019;-56
2023/05/16 16:59:58;;;;;;;16.67;3.20;;;18.50;66.10;;;;;;10247704;28;20110;-55
2023/05/16 17:04:58;;;;;;;13.38;3.63;;;18.50;65.90;;;;;;10248012;28;20027;-55
2023/05/16 17:09:59;;;;;;;29.33;4.93;;;18.40;66.00;;;;;;10248924;28;20483;-56
2023/05/16 17:15:00;;;;;;;12.90;2.38;;;18.30;65.90;;;;;;10229837;29;20047;-56
2023/05/16 17:20:05;;;;;;;11.20;3.17;;;18.30;65.80;;;;;;10230140;28;20785;-56
2023/05/16 17:25:06;;;;;;;8.77;2.60;;;18.20;66.00;;;;;;10245906;28;20424;-55
2023/05/16 17:30:09;;;;;;;9.50;1.92;;;18.20;65.70;;;;;;10246476;28;20059;-55
2023/05/16 17:35:10;;;;;;;11.05;2.65;;;18.20;65.70;;;;;;10235516;28;20458;-55
2023/05/16 17:40:15;;;;;;;7.15;2.45;;;18.10;65.80;;;;;;10246487;29;20054;-55
2023/05/16 17:45:17;;;;;;;8.52;2.58;;;18.20;65.90;;;;;;10229680;29;20105;-55
2023/05/16 17:50:19;;;;;;;10.32;2.22;;;18.10;65.90;;;;;;10251287;28;20042;-54
2023/05/16 17:55:21;;;;;;;12.55;2.65;;;18.10;65.90;;;;;;10285125;28;20043;-54
2023/05/16 18:00:22;;;;;;;8.32;2.60;;;18.10;65.90;;;;;;10285796;28;20023;-55
2023/05/16 18:05:23;;;;;;;7.55;1.83;;;18.10;65.70;;;;;;10275773;28;20031;-55
2023/05/16 18:10:24;;;;;;;11.45;2.78;;;18.10;65.80;;;;;;10227754;29;20465;-55
2023/05/16 18:15:25;;;;;;;6.63;2.20;;;18.10;65.90;;;;;;10227722;28;20098;-55
2023/05/16 18:20:26;;;;;;;7.63;2.20;;;18.00;66.00;;;;;;10244476;29;20491;-55
2023/05/16 18:25:27;;;;;;;4.65;2.10;;;18.00;66.10;;;;;;10240722;28;20019;-55
2023/05/16 18:30:28;;;;;;;6.05;1.92;;;18.00;65.90;;;;;;10244168;28;21223;-54
2023/05/16 18:35:29;;;;;;;7.47;1.80;;;18.10;65.50;;;;;;10221799;28;20041;-54
2023/05/16 18:40:30;;;;;;;10.63;1.65;;;18.20;67.80;;;;;;10174776;28;20130;-54
2023/05/16 18:45:30;;;;;;;8.48;2.08;;;18.20;66.90;;;;;;10246386;28;20506;-56
2023/05/16 18:50:31;;;;;;;7.47;2.50;;;18.20;66.90;;;;;;10262602;28;20035;-55
2023/05/16 18:55:32;;;;;;;8.18;2.10;;;18.20;66.90;;;;;;10201704;28;20038;-55
2023/05/16 19:00:33;;;;;;;10.50;3.70;;;18.20;66.80;;;;;;10233511;28;20434;-53
2023/05/16 19:05:34;;;;;;;3.28;1.25;;;18.10;66.90;;;;;;10242559;29;20030;-54
2023/05/16 19:10:37;;;;;;;4.97;1.52;;;18.20;66.90;;;;;;10224323;29;20041;-55
2023/05/16 19:15:37;;;;;;;9.65;2.42;;;18.30;66.50;;;;;;10227356;28;20058;-54
2023/05/16 19:20:38;;;;;;;6.65;1.73;;;18.20;67.00;;;;;;10287872;28;20031;-54
2023/05/16 19:25:46;;;;;;;4.80;1.20;;;18.10;67.00;;;;;;10232297;28;20038;-54
2023/05/16 19:30:47;;;;;;;6.07;1.70;;;18.10;67.10;;;;;;10200299;29;20035;-52
2023/05/16 19:35:50;;;;;;;6.20;1.58;;;18.00;67.20;;;;;;10228673;28;20042;-54
2023/05/16 19:40:52;;;;;;;5.22;1.27;;;18.00;67.80;;;;;;10233254;29;20059;-54
2023/05/16 19:45:52;;;;;;;3.25;1.08;;;18.00;67.20;;;;;;10243990;28;20081;-54
2023/05/16 19:50:53;;;;;;;5.38;1.77;;;18.00;67.20;;;;;;10253688;28;20458;-54
2023/05/16 19:55:54;;;;;;;4.45;1.65;;;17.90;67.10;;;;;;10298861;28;20015;-53
2023/05/16 20:00:55;;;;;;;4.65;1.42;;;17.90;67.10;;;;;;10303990;28;20792;-53
2023/05/16 20:05:55;;;;;;;5.60;1.90;;;17.90;67.10;;;;;;10232675;28;20031;-54
2023/05/16 20:10:56;;;;;;;5.43;1.45;;;17.90;67.10;;;;;;10249569;28;20031;-54
2023/05/16 20:15:57;;;;;;;2.85;1.00;;;17.90;67.70;;;;;;10249411;28;20745;-54
2023/05/16 20:20:58;;;;;;;4.10;1.38;;;17.80;67.00;;;;;;10249206;29;20027;-54
2023/05/16 20:25:58;;;;;;;3.15;1.27;;;17.90;67.00;;;;;;10231654;29;20114;-54
2023/05/16 20:31:00;;;;;;;4.07;1.08;;;17.80;67.00;;;;;;10231649;29;20514;-54
2023/05/16 20:36:01;;;;;;;2.65;1.30;;;17.80;67.00;;;;;;10255080;28;20098;-53
2023/05/16 20:41:03;;;;;;;5.28;1.02;;;17.80;66.90;;;;;;10267185;28;20010;-52
2023/05/16 20:46:04;;;;;;;4.38;0.98;;;17.80;67.00;;;;;;10276463;28;20078;-53
2023/05/16 20:51:05;;;;;;;3.75;1.60;;;17.80;67.00;;;;;;10247907;29;20038;-54
2023/05/16 20:56:05;;;;;;;5.20;1.67;;;17.80;67.00;;;;;;10230884;29;20039;-54
2023/05/16 21:01:07;;;;;;;2.45;0.95;;;17.70;67.00;;;;;;10230733;29;20110;-55
2023/05/16 21:06:08;;;;;;;2.65;0.93;;;17.70;66.90;;;;;;10230035;28;20019;-52
2023/05/16 21:11:09;;;;;;;2.42;0.93;;;17.70;66.80;;;;;;10247298;28;20106;-54
2023/05/16 21:16:11;;;;;;;3.08;0.93;;;17.70;66.80;;;;;;10246977;28;20136;-54
2023/05/16 21:21:11;;;;;;;3.25;0.95;;;17.70;66.70;;;;;;10267225;28;20031;-54
2023/05/16 21:26:12;;;;;;;3.47;1.58;;;17.70;66.70;;;;;;10301827;28;20114;-53
2023/05/16 21:31:13;;;;;;;6.00;2.05;;;17.70;66.80;;;;;;10301331;28;20027;-52
2023/05/16 21:36:14;;;;;;;1.58;0.70;;;17.70;66.60;;;;;;10274402;28;20485;-54
2023/05/16 21:41:16;;;;;;;2.03;1.02;;;17.70;66.70;;;;;;10229328;29;20047;-54
2023/05/16 21:46:17;;;;;;;1.98;0.80;;;17.60;66.70;;;;;;10245912;29;20106;-54
2023/05/16 21:51:18;;;;;;;2.35;1.10;;;17.60;66.60;;;;;;10260217;28;20593;-53
2023/05/16 21:56:18;;;;;;;3.70;1.10;;;17.60;66.60;;;;;;10252665;28;20022;-54
2023/05/16 22:01:23;;;;;;;2.03;0.77;;;17.60;66.50;;;;;;10228498;29;20110;-54
2023/05/16 22:06:24;;;;;;;4.43;0.90;;;17.60;66.60;;;;;;10245443;29;20024;-54
2023/05/16 22:11:25;;;;;;;2.63;1.00;;;17.60;66.60;;;;;;10227681;28;20379;-54
2023/05/16 22:16:25;;;;;;;1.92;0.88;;;17.60;66.70;;;;;;10227959;29;20506;-53
2023/05/16 22:21:26;;;;;;;2.97;0.90;;;17.60;66.60;;;;;;10235806;28;20109;-54
2023/05/16 22:26:27;;;;;;;2.15;0.80;;;17.60;66.90;;;;;;10276525;28;20077;-54
2023/05/16 22:31:27;;;;;;;2.47;1.30;;;17.50;67.60;;;;;;10227366;29;20070;-53
2023/05/16 22:36:28;;;;;;;2.47;1.05;;;17.50;66.90;;;;;;10251478;28;20142;-53
2023/05/16 22:41:29;;;;;;;2.28;0.88;;;17.50;66.90;;;;;;10227058;28;20451;-54
2023/05/16 22:46:30;;;;;;;1.75;0.90;;;17.60;66.80;;;;;;10227065;29;20016;-54
2023/05/16 22:51:30;;;;;;;2.00;1.55;;;17.50;66.80;;;;;;10259783;28;20110;-53
2023/05/16 22:56:31;;;;;;;2.97;0.85;;;17.50;66.70;;;;;;10278945;28;20131;-53
2023/05/16 23:01:32;;;;;;;1.13;0.70;;;17.50;66.80;;;;;;10243706;29;20106;-54
2023/05/16 23:06:33;;;;;;;2.85;1.20;;;17.50;67.10;;;;;;10243597;28;20024;-54
2023/05/16 23:11:33;;;;;;;2.97;0.90;;;17.50;66.80;;;;;;10243649;28;20597;-54
2023/05/16 23:16:34;;;;;;;3.67;1.10;;;17.50;66.80;;;;;;10243278;28;20047;-51
2023/05/16 23:21:35;;;;;;;2.08;1.08;;;17.50;67.10;;;;;;10226202;28;20019;-55
2023/05/16 23:26:35;;;;;;;2.33;0.82;;;17.40;67.00;;;;;;10226204;29;20118;-53
2023/05/16 23:31:36;;;;;;;1.10;0.52;;;17.40;66.90;;;;;;10228822;28;20054;-54
2023/05/16 23:36:37;;;;;;;3.47;1.40;;;17.40;66.90;;;;;;10240654;28;20019;-53
2023/05/16 23:41:37;;;;;;;4.95;1.08;;;17.40;66.90;;;;;;10250711;29;20047;-54
2023/05/16 23:46:38;;;;;;;2.65;1.00;;;17.40;67.10;;;;;;10233449;28;20015;-53
2023/05/16 23:51:39;;;;;;;2.22;0.90;;;17.40;67.00;;;;;;10250294;28;20105;-54
2023/05/16 23:56:39;;;;;;;1.65;1.00;;;17.40;66.80;;;;;;10259004;28;20024;-53
